KCAD/CAD METAR and TAF weather

Enter ICAO airport designator
Station Type Date Time Source
KCAD METAR 2019/04/23 00:16 UTC NOAA

KCAD 230016Z AUTO 20010G14KT 10SM SCT100 22/04 A2991 RMK AO2 T02220047


Station Type Date Time Source
KCAD Decoded METAR 2019/04/23 00:16 UTC NOAA

Cadillac / Wexford County, MI, United States (KCAD) 44-17N 085-25W
Apr 22, 2019 - 08:16 PM EDT / 2019.04.23 0016 UTC
Wind: from the SSW (200 degrees) at 12 MPH (10 KT) gusting to 16 MPH (14 KT):0
Visibility: 10 mile(s):0
Sky conditions: partly cloudy
Temperature: 72.0 F (22.2 C)
Dew Point: 40.5 F (4.7 C)
Relative Humidity: 31%
Pressure (altimeter): 29.91 in. Hg (1012 hPa)
ob: KCAD 230016Z AUTO 20010G14KT 10SM SCT100 22/04 A2991 RMK AO2 T02220047
cycle: 0

Station Type Date Time Source
KCAD TAF UTC NOAA

Error!

Example: see airport list